Time;durP1;ratioP1;P1;durP2;ratioP2;P2;SDS_P1;SDS_P2;PMS_P1;PMS_P2;Temp;Humidity;BMP_temperature;BMP_pressure;BME280_temperature;BME280_humidity;BME280_pressure;Samples;Min_cycle;Max_cycle;Signal;HPM_P1;HPM_P2
2023/03/09 00:01:39;;;;;;;0.60;0.60;;;19.70;49.60;;;;;;5034444;28;20271;-69
2023/03/09 00:04:05;;;;;;;0.73;0.73;;;19.70;49.70;;;;;;5050786;28;20199;-69
2023/03/09 00:06:31;;;;;;;1.45;0.70;;;19.70;49.60;;;;;;5033274;28;20195;-69
2023/03/09 00:08:57;;;;;;;2.33;0.90;;;19.70;49.70;;;;;;5045809;28;20206;-70
2023/03/09 00:11:24;;;;;;;0.93;0.85;;;19.70;49.70;;;;;;5055910;28;20186;-69
2023/03/09 00:13:50;;;;;;;1.27;0.98;;;19.70;49.70;;;;;;5034947;28;20253;-69
2023/03/09 00:16:24;;;;;;;0.63;0.63;;;19.70;49.70;;;;;;5049540;28;20190;-69
2023/03/09 00:18:51;;;;;;;0.70;0.70;;;19.70;49.70;;;;;;5054371;28;20637;-69
2023/03/09 00:21:37;;;;;;;1.13;1.00;;;19.70;49.70;;;;;;5055841;28;20186;-69
2023/03/09 00:24:10;;;;;;;0.70;0.70;;;19.70;49.70;;;;;;5054735;28;20186;-70
2023/03/09 00:26:49;;;;;;;0.90;0.85;;;19.80;49.80;;;;;;5037724;28;20186;-69
2023/03/09 00:29:15;;;;;;;0.73;0.73;;;19.70;49.70;;;;;;5034467;28;20206;-69
2023/03/09 00:31:42;;;;;;;0.80;0.80;;;19.70;49.70;;;;;;5051860;28;20183;-70
2023/03/09 00:34:09;;;;;;;0.73;0.70;;;19.70;49.70;;;;;;5038000;28;20270;-69
2023/03/09 00:36:35;;;;;;;0.60;0.60;;;19.70;49.80;;;;;;5037582;28;20274;-69
2023/03/09 00:41:37;;;;;;;0.90;0.90;;;19.70;49.80;;;;;;5025781;28;20215;-70
2023/03/09 00:44:04;;;;;;;0.90;0.90;;;19.70;49.80;;;;;;4993022;28;20195;-70
2023/03/09 00:46:32;;;;;;;0.80;0.68;;;19.70;49.80;;;;;;5002553;28;20254;-70
2023/03/09 00:49:02;;;;;;;0.68;0.68;;;19.70;49.80;;;;;;5014230;28;20203;-70
2023/03/09 00:51:28;;;;;;;0.93;0.80;;;19.70;49.80;;;;;;5004435;28;20214;-70
2023/03/09 00:53:56;;;;;;;1.25;0.90;;;19.70;49.80;;;;;;5001043;28;20175;-70
2023/03/09 00:56:26;;;;;;;0.70;0.70;;;19.70;49.80;;;;;;4995184;28;20191;-70
2023/03/09 00:58:53;;;;;;;0.65;0.65;;;19.70;49.80;;;;;;4991507;28;20211;-70
2023/03/09 01:01:20;;;;;;;0.70;0.70;;;19.70;49.80;;;;;;4995445;28;20192;-70
2023/03/09 01:03:47;;;;;;;1.73;0.80;;;19.70;49.80;;;;;;4974056;28;20211;-70
2023/03/09 01:06:15;;;;;;;1.88;0.70;;;19.70;49.80;;;;;;5009059;28;20183;-70
2023/03/09 01:08:41;;;;;;;0.82;0.82;;;19.70;49.90;;;;;;5017257;28;20203;-70
2023/03/09 01:11:13;;;;;;;0.77;0.70;;;19.70;49.90;;;;;;5005612;28;20192;-70
2023/03/09 01:13:39;;;;;;;0.73;0.70;;;19.70;49.90;;;;;;5000878;28;20191;-71
2023/03/09 01:16:06;;;;;;;1.67;0.90;;;19.70;50.00;;;;;;5000544;28;20179;-70
2023/03/09 01:18:32;;;;;;;0.93;0.80;;;19.70;50.00;;;;;;4989104;28;20232;-70
2023/03/09 01:20:59;;;;;;;0.75;0.50;;;19.70;49.90;;;;;;4984272;28;20220;-70
2023/03/09 01:23:26;;;;;;;0.63;0.63;;;19.70;50.00;;;;;;5000542;28;20187;-70
2023/03/09 01:25:53;;;;;;;0.52;0.50;;;19.70;49.90;;;;;;5000445;28;20211;-70
2023/03/09 01:28:19;;;;;;;0.73;0.73;;;19.70;49.90;;;;;;5000368;28;20284;-70
2023/03/09 01:30:44;;;;;;;0.77;0.43;;;19.80;50.00;;;;;;5011158;28;20187;-70
2023/03/09 01:33:12;;;;;;;0.60;0.55;;;19.70;49.90;;;;;;4996775;28;20194;-70
2023/03/09 01:35:39;;;;;;;0.90;0.57;;;19.70;49.90;;;;;;4997125;28;20176;-71
2023/03/09 01:38:05;;;;;;;1.10;0.70;;;19.70;49.90;;;;;;4996734;28;20208;-71
2023/03/09 01:40:33;;;;;;;0.65;0.65;;;19.80;50.00;;;;;;5000160;28;20211;-70
2023/03/09 01:43:29;;;;;;;0.60;0.60;;;19.70;49.90;;;;;;4984168;28;20191;-70
2023/03/09 01:46:19;;;;;;;0.88;0.60;;;19.70;49.90;;;;;;4990262;28;20196;-71
2023/03/09 01:48:51;;;;;;;0.50;0.50;;;19.70;49.80;;;;;;4991347;28;20240;-71
2023/03/09 01:51:19;;;;;;;1.08;0.70;;;19.70;49.90;;;;;;5003860;28;20213;-71
2023/03/09 01:53:48;;;;;;;1.30;0.60;;;19.80;50.00;;;;;;4980574;28;20176;-70
2023/03/09 01:56:19;;;;;;;0.60;0.60;;;19.70;49.90;;;;;;4992561;28;20270;-70
2023/03/09 01:58:48;;;;;;;0.75;0.70;;;19.70;49.90;;;;;;4999462;28;20222;-71
2023/03/09 02:01:16;;;;;;;0.50;0.50;;;19.70;49.80;;;;;;5016169;28;20192;-71
2023/03/09 02:03:49;;;;;;;0.60;0.60;;;19.70;49.90;;;;;;4991710;28;20279;-71
2023/03/09 02:06:21;;;;;;;1.27;0.60;;;19.70;50.10;;;;;;5012960;28;20179;-71
2023/03/09 02:09:32;;;;;;;0.52;0.52;;;19.70;49.90;;;;;;4998009;28;20225;-71
2023/03/09 02:12:01;;;;;;;0.60;0.60;;;19.70;50.20;;;;;;4982378;28;20189;-70
2023/03/09 02:14:31;;;;;;;1.08;0.57;;;19.70;49.90;;;;;;4994066;28;20188;-70
2023/03/09 02:16:56;;;;;;;0.77;0.50;;;19.70;49.90;;;;;;4990076;28;20265;-71
2023/03/09 02:19:50;;;;;;;0.60;0.60;;;19.70;49.90;;;;;;4996022;28;20199;-71
2023/03/09 02:22:17;;;;;;;0.50;0.47;;;19.70;49.90;;;;;;4999664;28;20163;-70
2023/03/09 02:25:05;;;;;;;0.50;0.50;;;19.70;49.90;;;;;;5008012;28;20658;-71
2023/03/09 02:27:33;;;;;;;0.60;0.60;;;19.70;49.90;;;;;;4996184;28;20188;-71
2023/03/09 02:29:59;;;;;;;0.95;0.60;;;19.70;49.90;;;;;;4987587;28;20239;-71
2023/03/09 02:32:31;;;;;;;0.60;0.60;;;19.70;49.90;;;;;;4986820;28;20202;-71
2023/03/09 02:34:57;;;;;;;0.68;0.50;;;19.70;49.90;;;;;;4989366;28;20227;-71
2023/03/09 02:37:36;;;;;;;1.30;0.63;;;19.70;49.90;;;;;;4999147;28;20214;-71
2023/03/09 02:40:28;;;;;;;1.05;0.70;;;19.70;49.90;;;;;;5000516;28;20290;-71
2023/03/09 02:42:57;;;;;;;0.50;0.50;;;19.70;49.90;;;;;;5014992;28;20269;-70
2023/03/09 02:45:24;;;;;;;0.60;0.60;;;19.70;49.90;;;;;;4985873;28;20191;-70
2023/03/09 02:47:52;;;;;;;0.50;0.50;;;19.70;50.00;;;;;;4995394;28;20180;-70
2023/03/09 02:50:18;;;;;;;0.60;0.60;;;19.70;49.90;;;;;;4982901;28;20628;-71
2023/03/09 02:52:44;;;;;;;0.60;0.60;;;19.70;49.90;;;;;;4976192;28;20188;-70
2023/03/09 02:55:11;;;;;;;0.50;0.45;;;19.70;49.90;;;;;;4995501;28;20234;-70
2023/03/09 02:57:37;;;;;;;0.70;0.70;;;19.70;49.80;;;;;;5003508;28;20200;-71
2023/03/09 03:00:08;;;;;;;0.63;0.50;;;19.70;49.90;;;;;;4995518;28;20204;-71
2023/03/09 03:02:35;;;;;;;1.20;0.50;;;19.70;49.90;;;;;;5001835;28;20183;-71
2023/03/09 03:05:01;;;;;;;0.50;0.50;;;19.70;49.90;;;;;;4998797;28;20183;-71
2023/03/09 03:07:27;;;;;;;0.52;0.52;;;19.70;49.90;;;;;;4998343;28;20715;-71
2023/03/09 03:09:53;;;;;;;0.50;0.50;;;19.70;49.90;;;;;;4990184;28;20302;-70
2023/03/09 03:12:18;;;;;;;0.52;0.50;;;19.70;49.90;;;;;;4985923;28;20183;-70
2023/03/09 03:14:45;;;;;;;0.70;0.70;;;19.70;49.90;;;;;;4997232;28;20187;-71
2023/03/09 03:17:13;;;;;;;0.65;0.60;;;19.70;49.90;;;;;;4995365;28;20239;-71
2023/03/09 03:19:40;;;;;;;0.57;0.57;;;19.70;49.90;;;;;;4987638;28;20205;-71
2023/03/09 03:22:07;;;;;;;0.95;0.70;;;19.70;50.00;;;;;;5020452;28;20185;-71
2023/03/09 03:24:39;;;;;;;0.90;0.47;;;19.70;49.90;;;;;;5000311;28;20178;-70
2023/03/09 03:27:06;;;;;;;0.65;0.40;;;19.70;49.90;;;;;;4989303;28;20211;-71
2023/03/09 03:29:35;;;;;;;0.55;0.52;;;19.70;49.90;;;;;;4990443;28;20272;-70
2023/03/09 03:32:00;;;;;;;0.50;0.50;;;19.70;49.90;;;;;;4996908;28;20187;-71
2023/03/09 03:34:27;;;;;;;1.23;0.40;;;19.70;49.90;;;;;;4978849;28;20254;-71
2023/03/09 03:36:53;;;;;;;0.77;0.70;;;19.70;49.90;;;;;;5011902;28;20235;-71
2023/03/09 03:39:20;;;;;;;0.45;0.45;;;19.70;50.00;;;;;;4998022;28;20663;-70
2023/03/09 03:41:47;;;;;;;0.50;0.50;;;19.70;50.00;;;;;;5017281;28;20229;-71
2023/03/09 03:44:16;;;;;;;0.40;0.40;;;19.70;50.00;;;;;;4995971;28;20177;-71
2023/03/09 03:46:43;;;;;;;0.75;0.65;;;19.70;50.00;;;;;;4990000;28;20175;-70
2023/03/09 03:49:10;;;;;;;0.40;0.40;;;19.70;50.00;;;;;;5015110;28;20258;-70
2023/03/09 03:51:37;;;;;;;0.40;0.40;;;19.70;50.00;;;;;;5003919;28;20188;-71
2023/03/09 03:54:04;;;;;;;0.40;0.40;;;19.70;50.00;;;;;;5006838;28;20186;-71
2023/03/09 03:56:30;;;;;;;0.30;0.30;;;19.70;50.00;;;;;;4976890;28;20587;-71
2023/03/09 03:58:58;;;;;;;0.40;0.40;;;19.70;50.00;;;;;;4999076;28;20207;-70
2023/03/09 04:01:24;;;;;;;0.60;0.50;;;19.70;50.00;;;;;;5003589;28;20527;-71
2023/03/09 04:03:55;;;;;;;0.40;0.40;;;19.80;50.10;;;;;;4993853;28;20179;-70
2023/03/09 04:06:22;;;;;;;0.45;0.43;;;19.70;50.00;;;;;;5002789;28;20183;-71
2023/03/09 04:08:48;;;;;;;0.50;0.50;;;19.70;50.00;;;;;;5018150;28;20207;-71
2023/03/09 04:11:13;;;;;;;0.40;0.40;;;19.70;50.00;;;;;;4993633;28;20183;-71
2023/03/09 04:13:48;;;;;;;0.40;0.40;;;19.70;50.00;;;;;;4991154;28;20192;-71
2023/03/09 04:16:14;;;;;;;0.75;0.70;;;19.70;50.10;;;;;;4993387;28;20179;-71
2023/03/09 04:18:40;;;;;;;0.40;0.40;;;19.70;50.10;;;;;;4991420;28;20221;-71
2023/03/09 04:21:06;;;;;;;0.60;0.40;;;19.70;50.10;;;;;;4989227;28;20183;-71
2023/03/09 04:23:32;;;;;;;0.30;0.30;;;19.70;50.10;;;;;;4982380;28;20180;-71
2023/03/09 04:26:04;;;;;;;0.52;0.40;;;19.80;50.10;;;;;;4982169;28;20184;-70
2023/03/09 04:28:38;;;;;;;0.40;0.40;;;19.70;50.10;;;;;;4997520;28;20206;-70
2023/03/09 04:31:07;;;;;;;0.52;0.50;;;19.80;50.10;;;;;;4991710;28;20195;-71
2023/03/09 04:33:34;;;;;;;0.52;0.38;;;19.70;50.10;;;;;;5003864;28;20684;-70
2023/03/09 04:36:01;;;;;;;0.68;0.60;;;19.70;50.10;;;;;;4991920;28;20195;-70
2023/03/09 04:38:32;;;;;;;1.77;0.55;;;19.70;50.10;;;;;;4997986;28;20294;-70
2023/03/09 04:40:58;;;;;;;0.50;0.50;;;19.70;50.10;;;;;;5015053;28;20194;-71
2023/03/09 04:43:24;;;;;;;0.50;0.50;;;19.80;50.10;;;;;;4988805;28;20184;-71
2023/03/09 04:45:50;;;;;;;0.40;0.40;;;19.80;50.10;;;;;;5005737;28;20202;-70
2023/03/09 04:48:17;;;;;;;0.32;0.32;;;19.70;50.10;;;;;;4989801;28;20183;-71
2023/03/09 04:50:44;;;;;;;0.40;0.40;;;19.70;50.10;;;;;;4997872;28;20191;-70
2023/03/09 04:53:11;;;;;;;0.47;0.47;;;19.70;50.10;;;;;;4999328;28;20202;-71
2023/03/09 04:55:37;;;;;;;0.40;0.40;;;19.70;50.10;;;;;;5009460;28;20191;-71
2023/03/09 04:58:07;;;;;;;0.50;0.50;;;19.70;50.10;;;;;;4991030;28;20211;-71
2023/03/09 05:00:33;;;;;;;0.57;0.40;;;19.70;50.10;;;;;;4978142;28;20204;-71
2023/03/09 05:03:01;;;;;;;0.40;0.40;;;19.70;50.10;;;;;;5004382;28;20182;-71
2023/03/09 05:05:27;;;;;;;0.70;0.60;;;19.70;50.10;;;;;;5000735;28;20183;-71
2023/03/09 05:07:56;;;;;;;0.73;0.40;;;19.70;50.10;;;;;;4992491;28;20230;-71
2023/03/09 05:10:22;;;;;;;0.50;0.50;;;19.70;50.10;;;;;;5001806;28;20261;-71
2023/03/09 05:12:50;;;;;;;0.57;0.43;;;19.70;50.10;;;;;;4992815;28;20191;-71
2023/03/09 05:15:19;;;;;;;0.85;0.68;;;19.70;50.10;;;;;;4997915;28;20184;-71
2023/03/09 05:17:45;;;;;;;0.88;0.52;;;19.80;50.20;;;;;;4978442;28;20213;-70
2023/03/09 05:20:13;;;;;;;0.60;0.50;;;19.70;50.10;;;;;;5027985;28;20231;-70
2023/03/09 05:22:44;;;;;;;0.50;0.50;;;19.70;50.10;;;;;;5012964;28;20186;-70
2023/03/09 05:25:12;;;;;;;0.50;0.50;;;19.70;50.10;;;;;;4992638;28;20187;-71
2023/03/09 05:27:38;;;;;;;0.65;0.60;;;19.80;50.20;;;;;;4994580;28;20191;-70
2023/03/09 05:30:06;;;;;;;0.50;0.50;;;19.70;50.10;;;;;;4990354;28;20214;-71
2023/03/09 05:32:33;;;;;;;0.82;0.60;;;19.70;50.10;;;;;;4987260;28;20186;-71
2023/03/09 05:34:59;;;;;;;1.05;0.70;;;19.70;50.10;;;;;;4973392;28;20180;-70
2023/03/09 05:37:26;;;;;;;0.40;0.30;;;19.70;50.10;;;;;;5000355;28;20260;-71
2023/03/09 05:39:53;;;;;;;0.75;0.35;;;19.70;50.10;;;;;;4992324;28;20211;-70
2023/03/09 05:42:19;;;;;;;0.88;0.60;;;19.70;50.10;;;;;;5016171;28;20197;-70
2023/03/09 05:44:45;;;;;;;1.02;0.57;;;19.70;50.10;;;;;;5000358;28;20190;-71
2023/03/09 05:47:11;;;;;;;1.10;0.60;;;19.70;50.10;;;;;;4999979;28;20191;-70
2023/03/09 05:49:37;;;;;;;0.80;0.50;;;19.70;50.10;;;;;;5009161;28;20235;-71
2023/03/09 05:52:03;;;;;;;0.45;0.45;;;19.70;50.10;;;;;;4991654;28;20183;-70
2023/03/09 05:54:30;;;;;;;0.50;0.50;;;19.70;50.20;;;;;;4995265;28;20195;-70
2023/03/09 05:57:00;;;;;;;0.65;0.65;;;19.70;50.10;;;;;;4996577;28;20235;-71
2023/03/09 05:59:27;;;;;;;0.50;0.50;;;19.70;50.10;;;;;;4992875;28;20206;-71
2023/03/09 06:01:52;;;;;;;1.45;0.70;;;19.70;50.20;;;;;;4991967;28;20179;-69
2023/03/09 06:04:22;;;;;;;0.93;0.60;;;19.70;50.10;;;;;;5011991;28;20262;-71
2023/03/09 06:06:52;;;;;;;0.85;0.70;;;19.70;50.10;;;;;;4996968;28;20590;-70
2023/03/09 06:09:21;;;;;;;0.80;0.47;;;19.70;50.20;;;;;;4991247;28;20202;-70
2023/03/09 06:11:47;;;;;;;0.60;0.60;;;19.70;50.20;;;;;;4986297;28;20724;-71
2023/03/09 06:14:13;;;;;;;0.50;0.50;;;19.70;50.20;;;;;;4990936;28;20229;-71
2023/03/09 06:16:42;;;;;;;0.60;0.60;;;19.70;50.20;;;;;;4999400;28;20625;-70
2023/03/09 06:19:09;;;;;;;1.08;0.60;;;19.70;50.20;;;;;;4981632;28;20287;-70
2023/03/09 06:21:35;;;;;;;0.55;0.52;;;19.70;50.20;;;;;;5004192;28;20184;-70
2023/03/09 06:24:03;;;;;;;0.75;0.63;;;19.70;50.20;;;;;;5004660;28;20190;-71
2023/03/09 06:26:29;;;;;;;1.05;0.43;;;19.70;50.20;;;;;;5007305;28;20176;-70
2023/03/09 06:29:00;;;;;;;1.15;0.50;;;19.70;50.20;;;;;;4999848;28;20277;-72
2023/03/09 06:31:27;;;;;;;1.15;0.45;;;19.70;50.20;;;;;;5012040;28;20204;-71
2023/03/09 06:33:56;;;;;;;0.93;0.70;;;19.70;50.20;;;;;;5011647;28;20210;-71
2023/03/09 06:36:23;;;;;;;1.20;0.70;;;19.70;50.20;;;;;;4984318;28;20547;-70
2023/03/09 06:38:51;;;;;;;1.45;0.80;;;19.70;50.30;;;;;;5026046;22;20216;-71
2023/03/09 06:41:29;;;;;;;0.80;0.60;;;19.70;50.20;;;;;;5047968;28;20188;-71
2023/03/09 06:43:58;;;;;;;1.40;0.80;;;19.70;50.20;;;;;;5040045;28;20186;-71
2023/03/09 06:46:25;;;;;;;1.02;0.88;;;19.70;50.20;;;;;;5034546;28;20190;-71
2023/03/09 06:48:51;;;;;;;1.80;0.73;;;19.70;50.20;;;;;;5033345;28;20194;-71
2023/03/09 06:51:17;;;;;;;0.93;0.50;;;19.70;50.20;;;;;;5022764;28;20175;-70
2023/03/09 06:53:44;;;;;;;0.85;0.70;;;19.70;50.20;;;;;;5016158;28;20183;-70
2023/03/09 06:56:13;;;;;;;0.82;0.70;;;19.70;50.20;;;;;;5037923;28;20184;-71
2023/03/09 06:58:39;;;;;;;1.42;0.70;;;19.70;50.20;;;;;;5041516;28;20210;-70
2023/03/09 07:01:11;;;;;;;1.52;0.85;;;19.70;50.20;;;;;;5031401;28;20203;-70
2023/03/09 07:03:39;;;;;;;0.98;0.65;;;19.70;50.20;;;;;;5001953;28;20195;-70
2023/03/09 07:06:05;;;;;;;1.42;0.63;;;19.70;50.20;;;;;;5012419;28;20195;-71
2023/03/09 07:08:31;;;;;;;1.35;0.70;;;19.70;50.20;;;;;;5031489;28;20240;-70
2023/03/09 07:10:57;;;;;;;1.15;0.70;;;19.70;50.20;;;;;;5047870;28;20210;-71
2023/03/09 07:13:23;;;;;;;2.33;0.68;;;19.70;50.20;;;;;;5031641;28;20195;-70
2023/03/09 07:15:49;;;;;;;0.82;0.63;;;19.70;50.20;;;;;;5014947;28;20332;-71
2023/03/09 07:18:15;;;;;;;0.93;0.60;;;19.70;50.20;;;;;;5029623;28;20219;-70
2023/03/09 07:20:41;;;;;;;1.10;0.50;;;19.70;50.20;;;;;;5002756;28;20576;-70
2023/03/09 07:23:10;;;;;;;3.17;0.82;;;19.70;50.30;;;;;;5029457;28;20195;-70
2023/03/09 07:25:37;;;;;;;1.77;0.98;;;19.80;50.30;;;;;;5027963;28;20199;-70
2023/03/09 07:28:06;;;;;;;1.05;0.60;;;19.70;50.20;;;;;;5036616;28;20191;-70
2023/03/09 07:30:33;;;;;;;1.08;0.70;;;19.80;50.30;;;;;;5047786;28;20289;-70
2023/03/09 07:33:00;;;;;;;0.90;0.52;;;19.80;50.40;;;;;;5047857;28;20309;-71
2023/03/09 07:35:26;;;;;;;0.98;0.70;;;19.80;50.30;;;;;;5015245;28;20198;-69
2023/03/09 07:37:53;;;;;;;1.35;0.90;;;19.80;50.30;;;;;;5025057;28;20299;-69
2023/03/09 07:40:20;;;;;;;1.80;0.85;;;19.80;50.20;;;;;;5038375;28;20710;-69
2023/03/09 07:42:52;;;;;;;1.55;0.90;;;19.80;50.20;;;;;;5014549;28;20245;-69
2023/03/09 07:45:30;;;;;;;1.42;0.73;;;19.90;50.20;;;;;;5038337;28;20254;-69
2023/03/09 07:47:56;;;;;;;1.95;0.82;;;19.90;50.20;;;;;;5047970;28;20237;-69
2023/03/09 07:50:23;;;;;;;1.90;1.05;;;19.90;50.20;;;;;;5012026;28;20214;-69
2023/03/09 07:52:49;;;;;;;1.50;0.82;;;19.90;50.20;;;;;;5042156;28;20187;-69
2023/03/09 07:55:16;;;;;;;1.50;0.90;;;19.90;50.10;;;;;;5047812;28;20191;-69
2023/03/09 07:57:43;;;;;;;1.25;0.88;;;20.00;50.20;;;;;;5047585;28;20289;-69
2023/03/09 08:00:13;;;;;;;1.58;0.90;;;20.00;50.20;;;;;;5013829;28;20294;-69
2023/03/09 08:02:40;;;;;;;1.30;0.70;;;20.00;50.20;;;;;;4994711;28;20282;-70
2023/03/09 08:05:09;;;;;;;3.13;0.82;;;20.00;50.70;;;;;;5044463;28;20194;-70
2023/03/09 08:07:36;;;;;;;0.80;0.80;;;20.00;50.10;;;;;;5018420;28;20279;-69
2023/03/09 08:10:03;;;;;;;0.82;0.80;;;20.00;50.10;;;;;;4994691;28;20664;-69
2023/03/09 08:12:29;;;;;;;2.60;0.80;;;20.00;50.10;;;;;;5022738;28;20270;-69
2023/03/09 08:14:55;;;;;;;1.05;0.80;;;20.00;50.20;;;;;;5047185;28;20225;-70
2023/03/09 08:17:21;;;;;;;1.88;1.25;;;20.00;50.10;;;;;;5029438;28;20208;-69
2023/03/09 08:19:46;;;;;;;1.00;0.90;;;20.00;50.20;;;;;;5009927;28;20207;-69
2023/03/09 08:22:12;;;;;;;5.00;1.00;;;20.00;50.10;;;;;;5047331;28;20576;-69
2023/03/09 08:24:38;;;;;;;2.78;1.10;;;20.00;50.20;;;;;;5047317;28;20183;-69
2023/03/09 08:27:04;;;;;;;1.33;0.88;;;20.00;50.20;;;;;;5015347;28;20225;-69
2023/03/09 08:29:30;;;;;;;1.40;0.93;;;20.00;50.20;;;;;;5014475;28;20210;-70
2023/03/09 08:31:56;;;;;;;1.15;0.60;;;20.10;50.20;;;;;;5018423;28;20218;-70
2023/03/09 08:34:21;;;;;;;1.70;0.93;;;20.10;50.30;;;;;;5050959;28;20210;-70
2023/03/09 08:36:47;;;;;;;1.42;0.82;;;20.00;50.20;;;;;;5050798;28;20195;-69
2023/03/09 08:39:13;;;;;;;2.05;0.90;;;20.00;50.20;;;;;;5017317;28;20268;-70
2023/03/09 08:41:39;;;;;;;0.90;0.70;;;20.00;50.20;;;;;;5017829;28;20183;-69
2023/03/09 08:44:05;;;;;;;2.25;0.85;;;20.00;50.30;;;;;;5034137;28;20329;-69
2023/03/09 08:46:31;;;;;;;1.65;0.70;;;20.00;50.30;;;;;;5050793;28;20190;-69
2023/03/09 08:48:57;;;;;;;1.30;0.85;;;20.00;50.30;;;;;;5050638;28;20191;-69
2023/03/09 08:51:23;;;;;;;1.25;0.75;;;20.00;50.20;;;;;;5001061;28;20192;-69
2023/03/09 08:53:49;;;;;;;1.77;0.80;;;20.00;50.30;;;;;;5050616;28;20583;-69
2023/03/09 08:56:15;;;;;;;1.27;0.80;;;20.00;50.30;;;;;;5050152;28;20206;-69
2023/03/09 08:58:41;;;;;;;1.65;0.80;;;20.00;50.30;;;;;;5050339;28;20226;-69
2023/03/09 09:01:09;;;;;;;0.80;0.80;;;20.00;50.30;;;;;;5050491;28;20226;-69
2023/03/09 09:03:38;;;;;;;1.38;0.80;;;20.00;50.30;;;;;;5017900;28;20198;-69
2023/03/09 09:06:13;;;;;;;0.95;0.70;;;19.90;50.20;;;;;;5050160;28;20207;-69
2023/03/09 09:08:41;;;;;;;1.40;0.70;;;19.90;50.20;;;;;;5036909;28;20191;-69
2023/03/09 09:11:10;;;;;;;1.90;0.70;;;19.90;50.20;;;;;;5020542;28;20289;-70
2023/03/09 09:13:37;;;;;;;0.70;0.70;;;19.90;50.20;;;;;;5017388;28;20191;-69
2023/03/09 09:16:07;;;;;;;1.00;0.70;;;19.90;50.30;;;;;;5017036;28;20199;-70
2023/03/09 09:18:36;;;;;;;0.93;0.70;;;19.90;50.20;;;;;;5046452;28;20216;-69
2023/03/09 09:21:17;;;;;;;0.80;0.70;;;19.90;50.20;;;;;;5004697;28;20211;-68
2023/03/09 09:23:45;;;;;;;0.63;0.63;;;20.00;50.30;;;;;;5050101;28;20276;-69
2023/03/09 09:26:12;;;;;;;0.90;0.63;;;20.00;50.30;;;;;;5032908;28;20191;-69
2023/03/09 09:28:39;;;;;;;1.00;0.73;;;20.00;50.30;;;;;;5049840;28;20213;-70
2023/03/09 09:31:06;;;;;;;0.90;0.77;;;20.00;50.30;;;;;;5016879;28;20857;-69
2023/03/09 09:33:36;;;;;;;0.85;0.65;;;20.00;50.30;;;;;;5049869;28;20192;-70
2023/03/09 09:36:06;;;;;;;2.20;1.10;;;19.90;50.10;;;;;;5049313;28;20199;-70
2023/03/09 09:38:33;;;;;;;0.77;0.65;;;20.00;50.30;;;;;;5016770;28;20238;-70
2023/03/09 09:41:06;;;;;;;1.17;0.70;;;20.00;50.20;;;;;;5049823;28;20218;-69
2023/03/09 09:43:33;;;;;;;1.17;0.70;;;19.90;50.20;;;;;;5049554;28;20194;-69
2023/03/09 09:46:03;;;;;;;1.60;0.65;;;20.00;50.20;;;;;;5016512;28;20194;-69
2023/03/09 09:48:30;;;;;;;1.08;0.88;;;20.00;50.20;;;;;;5044913;28;20196;-70
2023/03/09 09:52:05;;;;;;;1.05;0.77;;;20.00;50.20;;;;;;5019392;28;20268;-70
2023/03/09 09:54:58;;;;;;;1.45;0.60;;;20.00;50.30;;;;;;4976223;28;20275;-70
2023/03/09 09:57:39;;;;;;;1.40;0.75;;;20.00;50.10;;;;;;5031120;28;20215;-70
2023/03/09 10:00:34;;;;;;;0.85;0.60;;;20.00;50.20;;;;;;5016120;28;20289;-69
2023/03/09 10:03:30;;;;;;;1.38;0.73;;;20.00;50.20;;;;;;5032537;28;20187;-70
2023/03/09 10:06:22;;;;;;;1.35;0.70;;;20.00;50.20;;;;;;5016174;28;20229;-69
2023/03/09 10:08:56;;;;;;;1.88;0.70;;;20.00;50.20;;;;;;5019393;28;20188;-70
2023/03/09 10:11:35;;;;;;;1.20;0.70;;;20.00;50.10;;;;;;4996215;28;20257;-70
2023/03/09 10:14:23;;;;;;;1.95;0.88;;;20.00;50.20;;;;;;5029255;28;20229;-69
2023/03/09 10:17:11;;;;;;;1.55;0.70;;;20.00;50.20;;;;;;5026193;28;20203;-69
2023/03/09 10:19:40;;;;;;;1.27;0.88;;;20.00;50.20;;;;;;5012494;28;20235;-69
2023/03/09 10:22:27;;;;;;;1.27;0.90;;;20.00;50.20;;;;;;5044825;28;20202;-69
2023/03/09 10:24:55;;;;;;;2.00;0.88;;;20.00;50.10;;;;;;5048921;28;20233;-69
2023/03/09 10:27:45;;;;;;;0.90;0.50;;;20.00;50.70;;;;;;5014093;28;20183;-70
2023/03/09 10:30:47;;;;;;;0.98;0.77;;;20.00;50.10;;;;;;4995940;28;20218;-69
2023/03/09 10:33:43;;;;;;;0.88;0.70;;;20.10;50.20;;;;;;5014508;28;20182;-69
2023/03/09 10:36:20;;;;;;;1.10;0.73;;;20.10;50.20;;;;;;5031632;28;20198;-69
2023/03/09 10:38:46;;;;;;;1.00;0.70;;;20.00;50.10;;;;;;5028178;28;20587;-70
2023/03/09 10:41:17;;;;;;;0.75;0.60;;;20.10;50.20;;;;;;5036758;28;20192;-69
2023/03/09 10:43:44;;;;;;;0.80;0.73;;;20.10;50.10;;;;;;5032505;28;20183;-70
2023/03/09 10:46:22;;;;;;;0.63;0.63;;;20.10;50.10;;;;;;5015307;28;20172;-70
2023/03/09 10:49:07;;;;;;;2.22;0.55;;;20.10;50.20;;;;;;5016268;28;20198;-70
2023/03/09 10:51:41;;;;;;;0.77;0.77;;;20.10;50.20;;;;;;5039979;28;20187;-70
2023/03/09 10:54:17;;;;;;;1.30;0.60;;;20.10;50.20;;;;;;5031874;28;20190;-69
2023/03/09 10:56:46;;;;;;;2.38;0.57;;;20.10;50.20;;;;;;5012202;28;20188;-69
2023/03/09 10:59:21;;;;;;;1.40;0.82;;;20.10;50.20;;;;;;5028690;28;20203;-70
2023/03/09 11:01:51;;;;;;;0.82;0.80;;;20.00;50.00;;;;;;5012452;28;20191;-69
2023/03/09 11:04:37;;;;;;;0.80;0.80;;;20.10;50.20;;;;;;5012285;28;20183;-70
2023/03/09 11:07:24;;;;;;;0.95;0.90;;;20.10;50.00;;;;;;5043397;28;20194;-70
2023/03/09 11:09:52;;;;;;;1.30;0.88;;;20.00;50.00;;;;;;5040162;28;20211;-70
2023/03/09 11:12:23;;;;;;;1.10;0.98;;;20.10;50.10;;;;;;5031258;28;20187;-70
2023/03/09 11:14:56;;;;;;;3.28;1.63;;;20.10;50.20;;;;;;5031960;28;20191;-71
2023/03/09 11:17:38;;;;;;;2.70;1.88;;;20.10;50.10;;;;;;5039755;28;20204;-70
2023/03/09 11:20:26;;;;;;;3.05;2.60;;;20.10;50.20;;;;;;5012080;28;20208;-70
2023/03/09 11:23:01;;;;;;;6.25;4.15;;;20.00;50.10;;;;;;4995479;28;20195;-70
2023/03/09 11:26:10;;;;;;;8.57;6.43;;;20.10;50.10;;;;;;5013043;28;20214;-70
2023/03/09 11:29:35;;;;;;;15.32;10.07;;;20.10;50.10;;;;;;5012580;28;20204;-70
2023/03/09 11:32:01;;;;;;;12.50;9.30;;;20.10;50.20;;;;;;5027369;28;20678;-68
2023/03/09 11:34:33;;;;;;;15.82;9.85;;;20.10;50.20;;;;;;5011633;28;20211;-70
2023/03/09 11:37:19;;;;;;;15.00;10.40;;;20.10;50.20;;;;;;5018427;28;20190;-70
2023/03/09 11:40:05;;;;;;;12.73;10.20;;;20.10;50.20;;;;;;5040085;28;20677;-70
2023/03/09 11:42:49;;;;;;;18.33;12.90;;;20.10;50.20;;;;;;5031672;28;20203;-70
2023/03/09 11:45:23;;;;;;;18.88;14.95;;;20.10;50.20;;;;;;5032530;28;20167;-69
2023/03/09 11:48:15;;;;;;;21.63;16.63;;;20.10;50.20;;;;;;5039543;28;20187;-70
2023/03/09 11:51:23;;;;;;;19.20;14.65;;;20.10;50.20;;;;;;5012375;28;20212;-70
2023/03/09 11:54:00;;;;;;;20.80;16.15;;;20.10;50.20;;;;;;5024101;28;20555;-70
2023/03/09 11:56:30;;;;;;;22.55;16.88;;;20.10;50.20;;;;;;5056029;28;20338;-71
2023/03/09 11:59:32;;;;;;;28.13;18.05;;;20.10;50.20;;;;;;5017569;28;20219;-71
2023/03/09 12:02:21;;;;;;;23.42;17.73;;;20.10;50.20;;;;;;5027450;28;20277;-71
2023/03/09 12:04:53;;;;;;;23.75;18.17;;;20.10;50.20;;;;;;5018556;28;20249;-71
2023/03/09 12:07:40;;;;;;;27.55;20.27;;;20.10;50.20;;;;;;5051299;28;20175;-71
2023/03/09 12:10:21;;;;;;;25.60;19.05;;;20.10;50.40;;;;;;5051329;28;20210;-71
2023/03/09 12:13:30;;;;;;;27.77;20.38;;;20.10;50.20;;;;;;5051451;28;20177;-71
2023/03/09 12:16:04;;;;;;;28.05;20.20;;;20.10;50.20;;;;;;5034690;28;20187;-71
2023/03/09 12:18:35;;;;;;;25.10;19.30;;;20.10;50.20;;;;;;5016923;28;20203;-71
2023/03/09 12:21:09;;;;;;;30.27;20.90;;;20.10;50.20;;;;;;5031182;28;20266;-71
2023/03/09 12:23:35;;;;;;;27.42;20.45;;;20.10;50.30;;;;;;5028869;28;20237;-71
2023/03/09 12:26:18;;;;;;;27.38;21.65;;;20.10;50.20;;;;;;5052886;28;20171;-71
2023/03/09 12:29:22;;;;;;;32.72;20.92;;;20.10;50.20;;;;;;5045341;28;20175;-70
2023/03/09 12:32:32;;;;;;;25.33;20.70;;;20.10;50.10;;;;;;5051396;28;20236;-71
2023/03/09 12:35:04;;;;;;;28.55;20.63;;;20.10;50.20;;;;;;5034707;28;20193;-71
2023/03/09 12:37:35;;;;;;;27.40;21.02;;;20.10;50.60;;;;;;5043764;28;20245;-71
2023/03/09 12:40:19;;;;;;;27.02;21.02;;;20.10;50.40;;;;;;5057906;22;20215;-70
2023/03/09 12:42:49;;;;;;;29.17;21.85;;;20.10;50.30;;;;;;5036181;28;20225;-70
2023/03/09 12:45:17;;;;;;;30.75;22.70;;;20.10;50.20;;;;;;5045754;28;20179;-70
2023/03/09 12:47:57;;;;;;;35.17;22.67;;;20.10;50.20;;;;;;5042258;28;20186;-70
2023/03/09 12:50:41;;;;;;;31.05;24.38;;;20.10;50.20;;;;;;5022430;28;20200;-69
2023/03/09 12:53:32;;;;;;;29.73;21.50;;;20.10;50.30;;;;;;5033929;28;20210;-70
2023/03/09 12:56:03;;;;;;;25.27;20.90;;;20.10;50.20;;;;;;5036887;28;20179;-70
2023/03/09 12:58:38;;;;;;;30.20;21.95;;;20.10;50.20;;;;;;5057331;28;20200;-69
2023/03/09 13:01:13;;;;;;;28.48;21.98;;;20.10;50.20;;;;;;5042045;28;20210;-69
2023/03/09 13:03:46;;;;;;;28.17;21.98;;;20.10;50.20;;;;;;5035136;28;20190;-69
2023/03/09 13:06:41;;;;;;;31.42;23.63;;;20.10;50.10;;;;;;5042037;28;20184;-71
2023/03/09 13:09:24;;;;;;;28.42;22.00;;;20.10;50.20;;;;;;5026557;28;20176;-70
2023/03/09 13:11:56;;;;;;;30.58;22.80;;;20.10;50.20;;;;;;5034758;28;20705;-70